createdAt,value
2023-01-29T00:00:15.918Z,102.00
2023-01-29T00:00:47.730Z,102.00
2023-01-29T00:01:21.698Z,102.67
2023-01-29T00:01:54.007Z,103.00
2023-01-29T00:02:25.995Z,103.00
2023-01-29T00:02:57.899Z,103.00
2023-01-29T00:03:31.133Z,103.00
2023-01-29T00:04:02.890Z,103.67
2023-01-29T00:04:44.460Z,104.00
2023-01-29T00:05:26.652Z,104.00
2023-01-29T00:05:59.951Z,103.00
2023-01-29T00:06:32.644Z,102.33
2023-01-29T00:07:06.074Z,101.00
2023-01-29T00:07:37.729Z,100.67
2023-01-29T00:08:09.369Z,100.00
2023-01-29T00:08:41.047Z,100.00
2023-01-29T00:09:13.680Z,99.33
2023-01-29T00:09:45.401Z,99.00
2023-01-29T00:10:17.489Z,98.67
2023-01-29T00:10:49.575Z,98.00
2023-01-29T00:11:21.210Z,98.00
2023-01-29T00:11:52.875Z,98.00
2023-01-29T00:12:24.510Z,98.67
2023-01-29T00:12:56.195Z,99.00
2023-01-29T00:13:27.863Z,99.00
2023-01-29T00:13:59.594Z,99.00
2023-01-29T00:14:33.445Z,99.00
2023-01-29T00:15:09.065Z,99.00
2023-01-29T00:15:40.702Z,99.00
2023-01-29T00:16:12.509Z,98.00
2023-01-29T00:16:44.175Z,98.00
2023-01-29T00:17:15.863Z,97.67
2023-01-29T00:17:47.571Z,97.00
2023-01-29T00:18:19.207Z,97.00
2023-01-29T00:18:53.164Z,97.00
2023-01-29T00:19:24.871Z,97.33
2023-01-29T00:19:56.493Z,98.33
2023-01-29T00:20:30.290Z,100.00
2023-01-29T00:21:01.936Z,101.33
2023-01-29T00:21:33.662Z,102.67
2023-01-29T00:22:05.317Z,103.00
2023-01-29T00:22:37.020Z,103.00
2023-01-29T00:23:08.715Z,102.00
2023-01-29T00:23:40.349Z,101.33
2023-01-29T00:24:12.577Z,100.33
2023-01-29T00:24:44.432Z,99.67
2023-01-29T00:25:16.152Z,99.00
2023-01-29T00:25:48.001Z,98.33
2023-01-29T00:26:22.088Z,98.00
2023-01-29T00:26:53.745Z,97.00
2023-01-29T00:27:25.418Z,97.00
2023-01-29T00:27:57.195Z,97.00
2023-01-29T00:28:28.879Z,97.00
2023-01-29T00:29:03.921Z,97.00
2023-01-29T00:29:35.553Z,97.67
2023-01-29T00:30:15.564Z,98.67
2023-01-29T00:30:49.575Z,99.67
2023-01-29T00:31:24.398Z,100.00
2023-01-29T00:31:56.289Z,101.33
2023-01-29T00:32:30.555Z,103.33
2023-01-29T00:33:02.700Z,104.33
2023-01-29T00:33:34.483Z,105.33
2023-01-29T00:34:06.120Z,106.67
2023-01-29T00:34:40.185Z,107.33
2023-01-29T00:35:12.445Z,108.67
2023-01-29T00:35:44.330Z,108.00
2023-01-29T00:36:18.277Z,108.33
2023-01-29T00:36:49.943Z,109.67
2023-01-29T00:37:21.588Z,109.67
2023-01-29T00:37:55.579Z,110.00
2023-01-29T00:38:29.405Z,109.67
2023-01-29T00:39:02.804Z,109.00
2023-01-29T00:39:47.408Z,109.00
2023-01-29T00:40:20.046Z,107.67
2023-01-29T00:41:10.572Z,105.00
2023-01-29T00:42:01.036Z,100.67
2023-01-29T00:42:54.351Z,98.33
2023-01-29T00:43:46.398Z,97.00
2023-01-29T00:44:57.342Z,96.33
2023-01-29T00:45:29.152Z,97.00
2023-01-29T00:46:00.863Z,97.00
2023-01-29T00:46:32.563Z,97.00
2023-01-29T00:47:25.564Z,97.00
2023-01-29T00:47:57.218Z,98.00
2023-01-29T00:48:30.088Z,98.00
2023-01-29T00:49:03.797Z,97.33
2023-01-29T00:49:35.425Z,97.00
2023-01-29T00:50:10.451Z,97.00
2023-01-29T00:50:44.871Z,97.00
2023-01-29T00:51:16.507Z,96.33
2023-01-29T00:52:06.730Z,95.33
2023-01-29T00:52:45.357Z,94.00
2023-01-29T00:53:17.040Z,94.00
2023-01-29T00:53:50.556Z,94.00
2023-01-29T00:54:22.174Z,94.67
2023-01-29T00:54:59.259Z,95.00
2023-01-29T00:55:30.924Z,95.00
2023-01-29T00:56:02.574Z,94.00
2023-01-29T00:56:37.114Z,94.00
2023-01-29T00:57:08.924Z,93.33
2023-01-29T00:57:40.550Z,93.00
2023-01-29T00:58:14.576Z,93.33
2023-01-29T00:58:48.822Z,94.00
2023-01-29T00:59:20.448Z,94.00
2023-01-29T00:59:55.268Z,94.67
2023-01-29T01:00:28.775Z,95.00
2023-01-29T01:01:02.320Z,95.67
2023-01-29T01:01:52.240Z,96.67
2023-01-29T01:02:45.241Z,98.00
2023-01-29T01:03:17.552Z,97.00
2023-01-29T01:03:49.301Z,97.00
2023-01-29T01:04:20.949Z,97.00
2023-01-29T01:04:52.602Z,97.00
2023-01-29T01:05:27.394Z,97.67
2023-01-29T01:06:06.644Z,98.00
2023-01-29T01:06:39.579Z,97.33
2023-01-29T01:07:44.189Z,97.00
2023-01-29T01:08:34.392Z,97.00
2023-01-29T01:09:25.369Z,96.33
2023-01-29T01:10:18.166Z,96.00
2023-01-29T01:10:59.281Z,96.00
2023-01-29T01:11:30.912Z,96.00
2023-01-29T01:12:02.588Z,96.00
2023-01-29T01:12:34.243Z,96.00
2023-01-29T01:13:53.249Z,96.00
2023-01-29T01:14:24.916Z,95.33
2023-01-29T01:14:56.574Z,95.00
2023-01-29T01:15:37.967Z,94.33
2023-01-29T01:16:16.052Z,93.00
2023-01-29T01:16:51.373Z,92.67
2023-01-29T01:17:25.658Z,92.00
2023-01-29T01:18:00.285Z,92.00
2023-01-29T01:18:32.009Z,92.00
2023-01-29T01:19:05.105Z,91.33
2023-01-29T01:19:36.750Z,91.00
2023-01-29T01:20:11.537Z,91.00
2023-01-29T01:20:43.713Z,91.67
2023-01-29T01:21:22.545Z,92.00
2023-01-29T01:21:54.157Z,92.00
2023-01-29T01:22:25.787Z,92.67
2023-01-29T01:22:57.687Z,93.00
2023-01-29T01:23:29.306Z,93.67
2023-01-29T01:24:00.996Z,94.00
2023-01-29T01:24:32.817Z,94.00
2023-01-29T01:25:05.458Z,94.00
2023-01-29T01:25:37.303Z,94.00
2023-01-29T01:26:13.112Z,94.00
2023-01-29T01:26:44.734Z,94.67
2023-01-29T01:27:16.613Z,95.00
2023-01-29T01:27:48.330Z,95.00
2023-01-29T01:29:05.529Z,94.00
2023-01-29T01:29:37.196Z,93.67
2023-01-29T01:30:14.157Z,93.00
2023-01-29T01:30:46.514Z,93.00
2023-01-29T01:31:18.778Z,92.67
2023-01-29T01:31:50.611Z,92.00
2023-01-29T01:32:22.333Z,91.33
2023-01-29T01:32:57.058Z,89.00
2023-01-29T01:33:29.015Z,86.33
2023-01-29T01:34:02.031Z,86.33
2023-01-29T01:34:33.778Z,86.33
2023-01-29T01:35:05.945Z,85.33
2023-01-29T01:35:41.474Z,84.67
2023-01-29T01:36:14.006Z,84.00
2023-01-29T01:36:46.002Z,85.00
2023-01-29T01:37:20.043Z,85.00
2023-01-29T01:37:51.792Z,84.67
2023-01-29T01:38:24.463Z,83.67
2023-01-29T01:38:56.160Z,82.33
2023-01-29T01:39:27.865Z,82.00
2023-01-29T01:39:59.612Z,82.00
2023-01-29T01:40:31.342Z,82.00
2023-01-29T01:41:02.987Z,82.00
2023-01-29T01:41:37.231Z,82.00
2023-01-29T01:42:15.056Z,82.00
2023-01-29T01:42:56.319Z,82.00
2023-01-29T01:43:27.943Z,82.00
2023-01-29T01:44:02.232Z,82.00
2023-01-29T01:45:03.847Z,81.33
2023-01-29T01:45:36.664Z,80.33
2023-01-29T01:46:12.125Z,79.67
2023-01-29T01:46:43.906Z,76.67
2023-01-29T01:47:19.853Z,76.00
2023-01-29T01:48:12.951Z,75.33
2023-01-29T01:48:49.847Z,75.00
2023-01-29T01:49:21.827Z,75.00
2023-01-29T01:49:56.993Z,73.67
2023-01-29T01:50:37.132Z,73.00
2023-01-29T01:51:09.227Z,72.00
2023-01-29T01:51:45.617Z,71.67
2023-01-29T01:52:19.617Z,71.00
2023-01-29T01:52:56.912Z,71.00
2023-01-29T01:53:39.306Z,71.00
2023-01-29T01:54:21.145Z,72.00
2023-01-29T01:54:52.828Z,72.67
2023-01-29T01:55:28.460Z,73.00
2023-01-29T01:56:05.162Z,73.00
2023-01-29T01:56:44.600Z,73.00
2023-01-29T01:57:27.082Z,73.33
2023-01-29T01:58:10.106Z,74.00
2023-01-29T01:58:50.590Z,73.00
2023-01-29T01:59:23.967Z,73.00
2023-01-29T02:00:12.221Z,73.00
2023-01-29T02:00:43.947Z,73.33
2023-01-29T02:01:15.925Z,75.33
2023-01-29T02:01:51.199Z,79.67
2023-01-29T02:02:41.497Z,80.00
2023-01-29T02:03:32.489Z,80.00
2023-01-29T02:04:50.858Z,78.67
2023-01-29T02:05:41.501Z,73.33
2023-01-29T02:06:31.997Z,70.67
2023-01-29T02:07:26.486Z,67.33
2023-01-29T02:08:18.341Z,64.67
2023-01-29T02:09:16.329Z,63.00
2023-01-29T02:09:53.724Z,62.33
2023-01-29T02:10:29.974Z,63.00
2023-01-29T02:11:02.096Z,63.67
2023-01-29T02:11:33.817Z,64.00
2023-01-29T02:12:09.383Z,65.00
2023-01-29T02:12:42.917Z,65.67
2023-01-29T02:13:19.502Z,66.00
2023-01-29T02:13:53.691Z,66.67
2023-01-29T02:14:25.475Z,68.00
2023-01-29T02:14:57.203Z,69.00
2023-01-29T02:15:29.829Z,70.67
2023-01-29T02:16:01.466Z,72.00
2023-01-29T02:16:35.689Z,73.00
2023-01-29T02:17:14.108Z,73.00
2023-01-29T02:17:50.926Z,73.00
2023-01-29T02:18:22.797Z,72.00
2023-01-29T02:18:54.524Z,72.00
2023-01-29T02:20:02.940Z,72.00
2023-01-29T02:20:35.423Z,73.00
2023-01-29T02:21:31.567Z,73.00
2023-01-29T02:22:17.153Z,74.33
2023-01-29T02:23:15.956Z,76.00
2023-01-29T02:24:22.815Z,76.00
2023-01-29T02:25:27.806Z,76.00
2023-01-29T02:26:17.093Z,75.67
2023-01-29T02:27:04.665Z,73.67
2023-01-29T02:28:04.230Z,73.00
2023-01-29T02:28:41.833Z,72.00
2023-01-29T02:29:33.700Z,72.00
2023-01-29T02:30:15.134Z,72.00
2023-01-29T02:31:22.714Z,72.00
2023-01-29T02:32:21.344Z,73.00
2023-01-29T02:33:35.614Z,74.00
2023-01-29T02:34:26.073Z,79.67
2023-01-29T02:35:32.738Z,80.67
2023-01-29T02:36:21.252Z,80.00
2023-01-29T02:37:03.452Z,79.33
2023-01-29T02:37:50.004Z,78.67
2023-01-29T02:38:24.319Z,78.00
2023-01-29T02:39:28.253Z,76.33
2023-01-29T02:40:26.195Z,74.67
2023-01-29T02:41:20.980Z,74.00
2023-01-29T02:42:02.981Z,74.67
2023-01-29T02:42:56.429Z,76.00
2023-01-29T02:43:51.708Z,79.00
2023-01-29T02:44:43.918Z,82.00
2023-01-29T02:45:39.325Z,83.00
2023-01-29T02:46:22.846Z,83.00
2023-01-29T02:47:04.644Z,84.00
2023-01-29T02:47:51.809Z,83.33
2023-01-29T02:48:29.207Z,83.00
2023-01-29T02:49:22.645Z,82.33
2023-01-29T02:50:11.625Z,81.00
2023-01-29T02:50:52.326Z,80.00
2023-01-29T02:51:45.163Z,80.00
2023-01-29T02:52:27.946Z,81.67
2023-01-29T02:53:19.562Z,83.00
2023-01-29T02:54:11.790Z,84.00
2023-01-29T02:54:43.357Z,85.00
2023-01-29T02:55:40.877Z,85.67
2023-01-29T02:56:19.084Z,85.00
2023-01-29T02:57:00.549Z,85.00
2023-01-29T02:57:39.667Z,84.33
2023-01-29T02:58:34.781Z,84.00
2023-01-29T02:59:15.641Z,82.33
2023-01-29T03:00:03.256Z,80.33
2023-01-29T03:00:42.694Z,78.67
2023-01-29T03:01:22.263Z,77.00
2023-01-29T03:02:02.467Z,77.00
2023-01-29T03:02:44.049Z,76.33
2023-01-29T03:03:30.445Z,76.00
2023-01-29T03:04:11.065Z,75.00
2023-01-29T03:04:50.803Z,74.33
2023-01-29T03:05:38.373Z,74.00
2023-01-29T03:06:12.122Z,73.67
2023-01-29T03:07:10.143Z,73.00
2023-01-29T03:07:52.106Z,73.00
2023-01-29T03:08:43.003Z,73.00
2023-01-29T03:09:23.701Z,72.00
2023-01-29T03:09:56.932Z,72.00
2023-01-29T03:10:48.073Z,71.33
2023-01-29T03:11:21.179Z,70.00
2023-01-29T03:11:59.011Z,70.33
2023-01-29T03:12:35.336Z,70.00
2023-01-29T03:13:19.743Z,70.00
2023-01-29T03:14:01.189Z,71.00
2023-01-29T03:15:03.593Z,70.00
2023-01-29T03:15:46.941Z,69.67
2023-01-29T03:16:44.612Z,67.33
2023-01-29T03:17:16.450Z,66.00
2023-01-29T03:17:55.888Z,66.00
2023-01-29T03:18:36.814Z,65.00
2023-01-29T03:19:11.182Z,65.00
2023-01-29T03:19:47.055Z,65.00
2023-01-29T03:20:26.517Z,65.00
2023-01-29T03:21:27.546Z,65.00
2023-01-29T03:22:02.097Z,65.00
2023-01-29T03:22:38.161Z,65.00
2023-01-29T03:23:25.857Z,65.00
2023-01-29T03:24:18.609Z,65.00
2023-01-29T03:25:15.694Z,65.67
2023-01-29T03:26:06.084Z,66.00
2023-01-29T03:26:56.979Z,66.00
2023-01-29T03:28:12.711Z,66.00
2023-01-29T03:29:05.577Z,64.67
2023-01-29T03:30:00.687Z,64.33
2023-01-29T03:30:56.906Z,64.00
2023-01-29T03:31:49.832Z,64.00
2023-01-29T03:32:29.418Z,65.00
2023-01-29T03:33:06.692Z,65.33
2023-01-29T03:33:48.701Z,66.33
2023-01-29T03:34:30.898Z,67.67
2023-01-29T03:35:06.542Z,68.00
2023-01-29T03:35:48.423Z,67.00
2023-01-29T03:36:48.559Z,67.00
2023-01-29T03:37:29.905Z,65.67
2023-01-29T03:38:09.779Z,65.00
2023-01-29T03:38:41.706Z,64.00
2023-01-29T03:39:17.054Z,64.00
2023-01-29T03:39:49.103Z,64.00
2023-01-29T03:40:20.752Z,64.00
2023-01-29T03:41:06.327Z,64.00
2023-01-29T03:42:08.344Z,64.00
2023-01-29T03:43:11.340Z,64.00
2023-01-29T03:43:48.986Z,64.00
2023-01-29T03:44:41.958Z,63.00
2023-01-29T03:45:50.873Z,64.00
2023-01-29T03:46:31.042Z,64.00
2023-01-29T03:47:16.309Z,64.00
2023-01-29T03:48:06.354Z,64.00
2023-01-29T03:48:55.153Z,63.00
2023-01-29T03:49:44.739Z,63.00
2023-01-29T03:50:27.413Z,62.33
2023-01-29T03:51:08.101Z,62.00
2023-01-29T03:51:47.901Z,62.00
2023-01-29T03:52:44.832Z,62.00
2023-01-29T03:53:19.384Z,62.00
2023-01-29T03:54:11.195Z,62.00
2023-01-29T03:55:24.968Z,61.00
2023-01-29T03:56:17.973Z,60.33
2023-01-29T03:57:03.642Z,59.67
2023-01-29T03:57:45.685Z,59.00
2023-01-29T03:58:37.168Z,58.00
2023-01-29T03:59:27.406Z,58.00
2023-01-29T04:00:22.853Z,58.00
2023-01-29T04:01:01.330Z,58.00
2023-01-29T04:01:48.697Z,58.00
2023-01-29T04:02:28.024Z,58.00
2023-01-29T04:03:22.987Z,58.00
2023-01-29T04:04:14.322Z,58.00
2023-01-29T04:04:52.102Z,59.00
2023-01-29T04:05:31.501Z,59.00
2023-01-29T04:06:19.074Z,59.00
2023-01-29T04:06:55.387Z,59.00
2023-01-29T04:07:33.475Z,58.00
2023-01-29T04:08:26.119Z,57.33
2023-01-29T04:09:13.758Z,55.00
2023-01-29T04:09:52.584Z,54.00
2023-01-29T04:10:35.158Z,54.33
2023-01-29T04:11:18.007Z,55.00
2023-01-29T04:11:55.323Z,55.00
2023-01-29T04:12:36.022Z,55.00
2023-01-29T04:13:15.024Z,55.00
2023-01-29T04:13:47.587Z,54.00
2023-01-29T04:14:19.389Z,54.00
2023-01-29T04:14:56.381Z,54.00
2023-01-29T04:15:35.518Z,54.00
2023-01-29T04:16:14.742Z,53.00
2023-01-29T04:16:52.277Z,53.00
2023-01-29T04:17:33.029Z,54.00
2023-01-29T04:18:04.729Z,54.00
2023-01-29T04:18:36.789Z,53.67
2023-01-29T04:19:08.484Z,53.00
2023-01-29T04:19:40.677Z,52.33
2023-01-29T04:20:12.579Z,51.33
2023-01-29T04:20:44.896Z,50.00
2023-01-29T04:21:17.328Z,49.00
2023-01-29T04:21:55.627Z,48.33
2023-01-29T04:22:39.507Z,48.00
2023-01-29T04:23:26.417Z,47.00
2023-01-29T04:23:58.096Z,45.33
2023-01-29T04:24:31.416Z,44.33
2023-01-29T04:25:08.489Z,44.00
2023-01-29T04:25:50.128Z,43.33
2023-01-29T04:26:28.870Z,41.00
2023-01-29T04:27:09.222Z,41.00
2023-01-29T04:27:59.629Z,39.33
2023-01-29T04:28:53.899Z,37.33
2023-01-29T04:29:30.127Z,35.33
2023-01-29T04:30:18.749Z,34.67
2023-01-29T04:30:59.693Z,34.00
2023-01-29T04:31:48.954Z,33.33
2023-01-29T04:32:40.853Z,33.00
2023-01-29T04:33:12.402Z,32.00
2023-01-29T04:34:08.761Z,32.00
2023-01-29T04:35:01.768Z,32.00
2023-01-29T04:35:36.288Z,30.67
2023-01-29T04:36:08.344Z,30.00
2023-01-29T04:37:32.783Z,30.00
2023-01-29T04:38:22.592Z,31.00
2023-01-29T04:39:25.552Z,31.00
2023-01-29T04:40:30.819Z,31.00
2023-01-29T04:41:43.529Z,31.67
2023-01-29T04:42:35.155Z,32.00
2023-01-29T04:43:16.390Z,32.00
2023-01-29T04:44:00.499Z,32.00
2023-01-29T04:44:52.368Z,32.67
2023-01-29T04:45:54.538Z,34.00
2023-01-29T04:46:26.115Z,34.00
2023-01-29T04:47:12.145Z,34.00
2023-01-29T04:48:18.855Z,35.00
2023-01-29T04:49:09.974Z,35.00
2023-01-29T04:50:00.403Z,36.00
2023-01-29T04:50:42.412Z,36.00
2023-01-29T04:51:33.485Z,36.33
2023-01-29T04:52:31.872Z,37.00
2023-01-29T04:53:35.127Z,37.00
2023-01-29T04:54:28.385Z,38.00
2023-01-29T04:55:17.992Z,39.00
2023-01-29T04:55:51.773Z,40.00
2023-01-29T04:56:51.293Z,41.33
2023-01-29T04:57:32.780Z,42.00
2023-01-29T04:58:28.331Z,43.00
2023-01-29T04:59:07.077Z,44.00
2023-01-29T04:59:57.439Z,45.33
2023-01-29T05:00:37.009Z,48.00
2023-01-29T05:01:16.294Z,49.67
2023-01-29T05:01:51.306Z,51.00
2023-01-29T05:02:26.803Z,51.67
2023-01-29T05:03:01.604Z,52.00
2023-01-29T05:03:38.243Z,52.00
2023-01-29T05:04:15.274Z,52.00
2023-01-29T05:04:50.110Z,52.00
2023-01-29T05:05:22.186Z,52.00
2023-01-29T05:05:57.314Z,52.00
2023-01-29T05:07:19.484Z,52.00
2023-01-29T05:07:51.580Z,52.00
2023-01-29T05:08:26.206Z,53.00
2023-01-29T05:09:00.554Z,54.67
2023-01-29T05:09:34.295Z,55.00
2023-01-29T05:10:11.698Z,56.33
2023-01-29T05:10:44.520Z,57.00
2023-01-29T05:11:18.279Z,57.33
2023-01-29T05:11:51.683Z,57.00
2023-01-29T05:12:28.957Z,57.00
2023-01-29T05:13:04.231Z,57.67
2023-01-29T05:13:41.084Z,58.00
2023-01-29T05:14:17.092Z,58.00
2023-01-29T05:14:51.699Z,58.00
2023-01-29T05:15:30.448Z,58.00
2023-01-29T05:16:12.085Z,58.00
2023-01-29T05:16:51.632Z,57.00
2023-01-29T05:17:23.455Z,57.33
2023-01-29T05:18:01.883Z,57.00
2023-01-29T05:18:36.776Z,58.33
2023-01-29T05:19:14.026Z,59.00
2023-01-29T05:19:47.269Z,59.67
2023-01-29T05:20:19.110Z,60.00
2023-01-29T05:20:51.731Z,60.00
2023-01-29T05:21:25.049Z,60.00
2023-01-29T05:21:58.708Z,60.00
2023-01-29T05:22:33.700Z,60.00
2023-01-29T05:23:10.222Z,61.00
2023-01-29T05:23:53.131Z,62.67
2023-01-29T05:24:26.458Z,64.67
2023-01-29T05:25:00.246Z,66.00
2023-01-29T05:25:33.551Z,66.67
2023-01-29T05:26:10.928Z,67.67
2023-01-29T05:27:06.684Z,67.00
2023-01-29T05:27:57.181Z,67.00
2023-01-29T05:28:28.842Z,67.33
2023-01-29T05:29:00.477Z,68.33
2023-01-29T05:29:34.751Z,69.00
2023-01-29T05:30:07.053Z,69.00
2023-01-29T05:30:42.410Z,69.67
2023-01-29T05:31:16.769Z,70.33
2023-01-29T05:31:48.605Z,70.00
2023-01-29T05:32:20.360Z,70.00
2023-01-29T05:32:52.002Z,70.00
2023-01-29T05:33:31.328Z,69.67
2023-01-29T05:34:02.997Z,69.33
2023-01-29T05:34:34.715Z,70.00
2023-01-29T05:35:06.734Z,71.00
2023-01-29T05:35:38.421Z,72.33
2023-01-29T05:36:17.774Z,73.33
2023-01-29T05:36:50.157Z,74.67
2023-01-29T05:37:21.805Z,76.00
2023-01-29T05:37:54.418Z,76.00
2023-01-29T05:38:26.254Z,76.00
2023-01-29T05:38:57.873Z,76.00
2023-01-29T05:39:29.647Z,76.00
2023-01-29T05:40:47.241Z,76.00
2023-01-29T05:41:18.900Z,76.00
2023-01-29T05:41:51.494Z,76.00
2023-01-29T05:42:24.061Z,75.67
2023-01-29T05:42:55.712Z,76.00
2023-01-29T05:43:27.360Z,75.33
2023-01-29T05:43:58.995Z,73.67
2023-01-29T05:44:34.201Z,73.00
2023-01-29T05:45:08.918Z,73.00
2023-01-29T05:45:40.590Z,73.00
2023-01-29T05:46:12.221Z,74.00
2023-01-29T05:46:44.546Z,74.33
2023-01-29T05:47:24.412Z,74.33
2023-01-29T05:48:00.115Z,75.00
2023-01-29T05:48:32.465Z,74.33
2023-01-29T05:49:04.438Z,74.00
2023-01-29T05:49:38.645Z,74.00
2023-01-29T05:50:13.431Z,74.00
2023-01-29T05:50:45.481Z,73.67
2023-01-29T05:51:17.121Z,73.00
2023-01-29T05:51:48.761Z,73.00
2023-01-29T05:52:20.456Z,73.00
2023-01-29T05:53:02.231Z,73.00
2023-01-29T05:53:36.782Z,74.00
2023-01-29T05:54:08.414Z,74.00
2023-01-29T05:54:40.040Z,74.00
2023-01-29T05:55:11.809Z,74.33
2023-01-29T05:55:49.739Z,74.00
2023-01-29T05:56:21.441Z,74.00
2023-01-29T05:56:53.088Z,74.00
2023-01-29T05:57:24.794Z,73.00
2023-01-29T05:57:56.470Z,72.67
2023-01-29T05:58:29.993Z,72.00
2023-01-29T05:59:01.703Z,72.00
2023-01-29T05:59:35.636Z,72.00
2023-01-29T06:00:09.186Z,72.67
2023-01-29T06:00:41.777Z,73.00
2023-01-29T06:01:22.228Z,73.00
2023-01-29T06:01:56.573Z,73.67
2023-01-29T06:02:31.652Z,75.00
2023-01-29T06:03:03.545Z,77.00
2023-01-29T06:03:35.300Z,80.67
2023-01-29T06:04:07.001Z,83.00
2023-01-29T06:04:38.686Z,83.00
2023-01-29T06:05:12.668Z,83.67
2023-01-29T06:05:44.539Z,85.00
2023-01-29T06:06:17.036Z,87.00
2023-01-29T06:06:48.739Z,88.33
2023-01-29T06:07:20.384Z,90.33
2023-01-29T06:07:52.077Z,91.33
2023-01-29T06:08:23.708Z,91.33
2023-01-29T06:08:56.342Z,91.00
2023-01-29T06:09:27.990Z,95.67
2023-01-29T06:10:01.817Z,103.33
2023-01-29T06:10:33.507Z,112.00
2023-01-29T06:11:08.627Z,119.67
2023-01-29T06:11:40.688Z,116.33
2023-01-29T06:12:16.745Z,112.00
2023-01-29T06:12:50.671Z,111.67
2023-01-29T06:13:24.775Z,117.67
2023-01-29T06:13:56.430Z,113.00
2023-01-29T06:14:28.132Z,108.67
2023-01-29T06:14:59.770Z,107.33
2023-01-29T06:15:33.808Z,105.67
2023-01-29T06:16:11.803Z,104.33
2023-01-29T06:16:47.327Z,103.33
2023-01-29T06:17:18.988Z,102.67
2023-01-29T06:17:53.067Z,102.00
2023-01-29T06:18:26.837Z,101.67
2023-01-29T06:18:58.458Z,101.00
2023-01-29T06:19:32.095Z,100.67
2023-01-29T06:20:04.888Z,98.00
2023-01-29T06:20:37.556Z,95.33
2023-01-29T06:21:12.675Z,94.00
2023-01-29T06:21:44.446Z,93.33
2023-01-29T06:22:16.089Z,92.33
2023-01-29T06:22:47.812Z,91.33
2023-01-29T06:23:19.449Z,91.00
2023-01-29T06:23:53.796Z,90.00
2023-01-29T06:24:25.610Z,88.67
2023-01-29T06:24:57.283Z,88.00
2023-01-29T06:25:28.949Z,88.00
2023-01-29T06:26:06.448Z,87.33
2023-01-29T06:26:38.157Z,86.67
2023-01-29T06:27:12.046Z,86.00
2023-01-29T06:27:43.732Z,86.00
2023-01-29T06:28:15.484Z,86.00
2023-01-29T06:28:50.918Z,87.00
2023-01-29T06:29:22.635Z,87.00
2023-01-29T06:29:54.298Z,87.00
2023-01-29T06:30:28.363Z,87.00
2023-01-29T06:31:19.926Z,85.67
2023-01-29T06:31:56.390Z,83.33
2023-01-29T06:32:28.172Z,82.67
2023-01-29T06:33:01.620Z,82.67
2023-01-29T06:33:35.733Z,82.00
2023-01-29T06:34:08.072Z,82.00
2023-01-29T06:34:39.856Z,82.00
2023-01-29T06:35:12.715Z,83.00
2023-01-29T06:35:47.364Z,83.00
2023-01-29T06:36:19.140Z,83.33
2023-01-29T06:36:50.764Z,83.00
2023-01-29T06:37:22.414Z,83.00
2023-01-29T06:37:54.329Z,83.33
2023-01-29T06:38:26.543Z,84.67
2023-01-29T06:38:58.219Z,85.67
2023-01-29T06:39:29.893Z,84.67
2023-01-29T06:40:01.591Z,81.00
2023-01-29T06:40:36.049Z,76.67
2023-01-29T06:41:14.102Z,73.67
2023-01-29T06:41:46.382Z,71.33
2023-01-29T06:42:18.119Z,71.67
2023-01-29T06:42:52.186Z,73.00
2023-01-29T06:43:24.163Z,73.00
2023-01-29T06:43:55.884Z,73.67
2023-01-29T06:44:27.697Z,74.00
2023-01-29T06:44:59.381Z,75.00
2023-01-29T06:45:31.051Z,75.00
2023-01-29T06:46:02.751Z,75.00
2023-01-29T06:46:34.756Z,75.00
2023-01-29T06:47:06.499Z,75.00
2023-01-29T06:47:38.129Z,75.33
2023-01-29T06:48:09.818Z,76.00
2023-01-29T06:48:41.486Z,77.33
2023-01-29T06:49:13.730Z,80.67
2023-01-29T06:49:45.372Z,86.33
2023-01-29T06:50:20.128Z,92.67
2023-01-29T06:50:55.090Z,93.67
2023-01-29T06:51:34.230Z,91.67
2023-01-29T06:52:07.516Z,89.00
2023-01-29T06:52:39.185Z,84.00
2023-01-29T06:53:10.994Z,80.33
2023-01-29T06:53:45.329Z,80.00
2023-01-29T06:54:20.430Z,81.00
2023-01-29T06:54:52.181Z,82.33
2023-01-29T06:55:23.838Z,85.00
2023-01-29T06:55:55.570Z,86.00
2023-01-29T06:56:27.280Z,86.00
2023-01-29T06:56:58.943Z,86.00
2023-01-29T06:57:30.577Z,86.00
2023-01-29T06:58:11.161Z,85.00
2023-01-29T06:58:43.636Z,83.00
2023-01-29T06:59:15.457Z,76.33
2023-01-29T06:59:49.834Z,70.33
2023-01-29T07:00:24.210Z,67.33
2023-01-29T07:01:07.109Z,62.67
2023-01-29T07:01:41.406Z,59.00
2023-01-29T07:02:15.963Z,58.00
2023-01-29T07:02:50.840Z,56.00
2023-01-29T07:03:22.506Z,53.67
2023-01-29T07:03:54.273Z,51.00
2023-01-29T07:04:25.933Z,49.00
2023-01-29T07:04:59.985Z,50.67
2023-01-29T07:05:31.682Z,52.67
2023-01-29T07:06:04.585Z,54.00
2023-01-29T07:06:36.681Z,53.67
2023-01-29T07:07:13.165Z,52.00
2023-01-29T07:07:44.816Z,50.67
2023-01-29T07:08:16.532Z,50.33
2023-01-29T07:08:48.166Z,49.33
2023-01-29T07:09:19.811Z,47.67
2023-01-29T07:09:51.460Z,47.00
2023-01-29T07:10:25.860Z,48.00
2023-01-29T07:11:01.947Z,48.00
2023-01-29T07:11:35.020Z,49.00
2023-01-29T07:12:07.323Z,49.00
2023-01-29T07:12:38.982Z,49.00
2023-01-29T07:13:10.658Z,49.00
2023-01-29T07:13:42.325Z,49.00
2023-01-29T07:14:14.020Z,48.33
2023-01-29T07:14:48.536Z,48.00
2023-01-29T07:15:21.410Z,47.33
2023-01-29T07:15:53.194Z,47.00
2023-01-29T07:16:26.357Z,48.67
2023-01-29T07:17:05.706Z,55.67
2023-01-29T07:17:39.474Z,56.33
2023-01-29T07:18:16.843Z,55.67
2023-01-29T07:18:48.502Z,54.00
2023-01-29T07:19:22.978Z,51.67
2023-01-29T07:19:54.637Z,50.00
2023-01-29T07:20:33.397Z,48.00
2023-01-29T07:21:07.102Z,48.00
2023-01-29T07:21:38.822Z,48.33
2023-01-29T07:22:10.457Z,125.67
2023-01-29T07:22:42.080Z,337.33
2023-01-29T07:23:16.805Z,464.67
2023-01-29T07:23:48.510Z,493.33
2023-01-29T07:24:20.630Z,493.67
2023-01-29T07:24:52.314Z,440.67
2023-01-29T07:25:25.497Z,342.00
2023-01-29T07:26:00.115Z,245.00
2023-01-29T07:26:31.764Z,199.33
2023-01-29T07:27:03.560Z,182.00
2023-01-29T07:27:35.191Z,148.67
2023-01-29T07:28:07.375Z,122.67
2023-01-29T07:28:40.327Z,106.00
2023-01-29T07:29:11.985Z,101.00
2023-01-29T07:29:45.372Z,108.00
2023-01-29T07:30:17.806Z,113.33
2023-01-29T07:30:52.336Z,104.00
2023-01-29T07:31:24.083Z,128.67
2023-01-29T07:31:55.903Z,170.67
2023-01-29T07:32:29.189Z,198.67
2023-01-29T07:33:08.251Z,176.67
2023-01-29T07:33:45.765Z,167.33
2023-01-29T07:34:17.415Z,201.33
2023-01-29T07:34:49.194Z,268.33
2023-01-29T07:35:20.912Z,271.33
2023-01-29T07:35:53.318Z,280.00
2023-01-29T07:36:25.039Z,332.33
2023-01-29T07:36:58.197Z,343.00
2023-01-29T07:37:29.849Z,353.67
2023-01-29T07:38:02.711Z,376.00
2023-01-29T07:38:34.378Z,340.00
2023-01-29T07:39:06.026Z,295.67
2023-01-29T07:39:39.541Z,282.00
2023-01-29T07:40:11.752Z,277.33
2023-01-29T07:40:44.069Z,268.67
2023-01-29T07:41:15.709Z,230.33
2023-01-29T07:41:47.327Z,170.00
2023-01-29T07:42:18.965Z,139.33
2023-01-29T07:42:50.621Z,134.67
2023-01-29T07:43:24.770Z,150.33
2023-01-29T07:43:56.466Z,165.67
2023-01-29T07:44:32.445Z,165.33
2023-01-29T07:45:04.811Z,147.33
2023-01-29T07:45:38.646Z,143.67
2023-01-29T07:46:12.385Z,132.67
2023-01-29T07:46:49.260Z,120.00
2023-01-29T07:47:20.901Z,116.33
2023-01-29T07:47:57.283Z,113.33
2023-01-29T07:48:30.838Z,102.67
2023-01-29T07:49:08.343Z,98.67
2023-01-29T07:49:39.992Z,105.00
2023-01-29T07:50:13.044Z,110.67
2023-01-29T07:50:46.490Z,111.33
2023-01-29T07:51:18.612Z,106.33
2023-01-29T07:51:50.285Z,103.00
2023-01-29T07:52:22.449Z,97.67
2023-01-29T07:52:55.149Z,93.00
2023-01-29T07:53:28.561Z,89.67
2023-01-29T07:54:00.234Z,85.00
2023-01-29T07:54:32.048Z,81.33
2023-01-29T07:55:04.898Z,80.33
2023-01-29T07:55:39.062Z,81.33
2023-01-29T07:56:10.705Z,77.33
2023-01-29T07:56:42.374Z,78.00
2023-01-29T07:57:14.004Z,76.67
2023-01-29T07:57:45.746Z,78.67
2023-01-29T07:58:19.835Z,83.33
2023-01-29T07:58:51.485Z,82.67
2023-01-29T07:59:23.119Z,79.33
2023-01-29T07:59:54.737Z,76.33
2023-01-29T08:00:26.850Z,74.00
2023-01-29T08:00:58.503Z,73.67
2023-01-29T08:01:30.183Z,74.00
2023-01-29T08:02:04.188Z,75.33
2023-01-29T08:02:38.721Z,74.67
2023-01-29T08:03:14.013Z,73.33
2023-01-29T08:03:45.627Z,71.00
2023-01-29T08:04:22.673Z,72.67
2023-01-29T08:04:54.339Z,78.33
2023-01-29T08:05:25.952Z,80.67
2023-01-29T08:05:58.173Z,81.67